ADDS TAF Board (Experimental) INFO Settings
IDs: Format: Expanded Condensed

KSTL - St Louis/Lambert Int, MO, US

Issued at 1720 UTC 27 Aug 2015
Updated at: 1921 UTC 27 Aug 2015
Time1851Z 27/20Z 27/21Z 27/22Z 27/23Z 28/00Z 28/01Z 28/02Z 28/03Z 28/04Z 28/05Z 28/06Z 28/07Z 28/08Z
Type OBS PRVL PRVL PRVL PRVL PRVL PRVL PRVL PRVL PRVL PRVL PRVL PRVL PRVL
VIS 10 >6 >6 >6 >6 >6 >6 >6 >6 >6 >6 >6 >6 >6
CIG 250 -- -- -- -- -- -- -- -- -- -- -- -- --
Cover BKN SCT SCT SCT SCT SCT SCT SCT SCT SCT SCT SCT SCT SCT
FltCat VFR VFR VFR VFR VFR VFR VFR VFR VFR VFR VFR VFR VFR VFR
WX -- -- -- -- -- -- -- -- -- -- -- -- -- --
WDir 290 140 140 140 140 140 140 140 140 140 140 140 140 140
WSpd 4 5 5 5 5 5 5 5 5 5 5 5 5 5
WGst -- -- -- -- -- -- -- -- -- -- -- -- -- --
R06/24
XWnd 3 -5 -5 -5 -5 -5 -5 -5 -5 -5 -5 -5 -5 -5
HWnd -3 1 1 1 1 1 1 1 1 1 1 1 1 1
R11/29
XWnd -1 -2 -2 -2 -2 -2 -2 -2 -2 -2 -2 -2 -2 -2
HWnd -4 5 5 5 5 5 5 5 5 5 5 5 5 5
R12/30
XWnd -1 -2 -2 -2 -2 -2 -2 -2 -2 -2 -2 -2 -2 -2
HWnd -4 5 5 5 5 5 5 5 5 5 5 5 5 5

NOTE: TEMPO conditions in [brackets]. Keep in mind TEMPO conditions might be better (lower impact) than prevailing conditions.

Raw TAF
KSTL 271720Z 2718/2824 14005KT P6SM FEW040 SCT250
  FM281500 17010KT P6SM SCT050 BKN250


Raw METAR
KSTL 271851Z 29004KT 10SM FEW042 BKN250 26/13 A3015 RMK AO2 SLP203 T02610128
KSTL 271751Z VRB03KT 10SM FEW040 BKN250 26/13 A3019 RMK AO2 SLP216 T02560128 10256 20161 53008
KSTL 271651Z VRB04KT 10SM FEW045 BKN250 24/13 A3019 RMK AO2 SLP215 T02440133

METAR Board
Radar Display
Forecast Discussion

TAF Board Legend

Potential Impact
Threat None Slight Moderate High
Visibility (sm) ≥5.1 5.1>X≥3 3>X≥1 <1
Ceiling (100 ft) ≥30.1 30.1>X≥10 10>X≥5 <5
Wind Speed (kt) <10 10≤X<20 20≤X<30 ≥30
Wind Gust (kt) <15 15≤X<25 25≤X<35 ≥35
Weather No Wx Reported VCTS,-TS,-FZRA,SN TS,FZRA +TS,+FZRA,+SN